createdAt,value
2022-08-31T00:00:30.492Z,3.40
2022-08-31T00:05:35.112Z,2.75
2022-08-31T00:10:43.287Z,3.70
2022-08-31T00:15:48.397Z,3.83
2022-08-31T00:20:56.699Z,3.55
2022-08-31T00:25:59.991Z,3.55
2022-08-31T00:31:03.379Z,3.55
2022-08-31T00:36:10.680Z,4.20
2022-08-31T00:41:13.912Z,4.85
2022-08-31T00:46:21.794Z,4.55
2022-08-31T00:51:27.687Z,4.72
2022-08-31T00:56:31.518Z,4.70
2022-08-31T01:01:34.979Z,4.72
2022-08-31T01:06:40.818Z,5.05
2022-08-31T01:11:44.451Z,4.53
2022-08-31T01:16:52.427Z,4.22
2022-08-31T01:22:04.068Z,4.18
2022-08-31T01:27:09.179Z,4.55
2022-08-31T01:32:13.040Z,4.88
2022-08-31T01:37:16.549Z,4.93
2022-08-31T01:42:21.654Z,4.28
2022-08-31T01:47:25.474Z,4.80
2022-08-31T01:52:30.211Z,3.97
2022-08-31T01:57:35.013Z,3.53
2022-08-31T02:02:38.440Z,4.07
2022-08-31T02:07:41.961Z,4.65
2022-08-31T02:12:46.736Z,3.60
2022-08-31T02:17:52.674Z,4.88
2022-08-31T02:22:56.199Z,4.63
2022-08-31T02:28:01.355Z,4.70
2022-08-31T02:33:08.108Z,4.43
2022-08-31T02:38:12.257Z,4.97
2022-08-31T02:43:24.635Z,4.47
2022-08-31T02:48:28.559Z,5.22
2022-08-31T02:53:31.906Z,5.72
2022-08-31T02:58:37.055Z,5.35
2022-08-31T03:03:40.308Z,5.07
2022-08-31T03:08:47.607Z,4.85
2022-08-31T03:13:56.449Z,4.95
2022-08-31T03:19:01.695Z,4.55
2022-08-31T03:24:05.381Z,4.90
2022-08-31T03:29:10.085Z,5.55
2022-08-31T03:34:16.848Z,5.13
2022-08-31T03:39:21.051Z,6.18
2022-08-31T03:44:25.648Z,5.30
2022-08-31T03:49:28.905Z,6.15
2022-08-31T03:54:32.337Z,5.78
2022-08-31T03:59:37.533Z,5.65
2022-08-31T04:04:45.715Z,6.18
2022-08-31T04:09:50.252Z,5.75
2022-08-31T04:14:55.522Z,6.13
2022-08-31T04:19:58.703Z,6.20
2022-08-31T04:25:02.050Z,5.45
2022-08-31T04:30:09.239Z,5.55
2022-08-31T04:35:12.420Z,5.38
2022-08-31T04:40:20.420Z,5.45
2022-08-31T04:45:30.987Z,5.28
2022-08-31T04:50:34.238Z,5.63
2022-08-31T04:55:41.218Z,5.68
2022-08-31T05:00:45.867Z,5.65
2022-08-31T05:05:50.887Z,5.40
2022-08-31T05:10:54.207Z,5.35
2022-08-31T05:15:59.162Z,4.95
2022-08-31T05:21:10.644Z,5.10
2022-08-31T05:26:21.536Z,5.38
2022-08-31T05:31:31.024Z,5.03
2022-08-31T05:36:35.033Z,5.20
2022-08-31T05:41:38.516Z,4.90
2022-08-31T05:46:43.527Z,4.90
2022-08-31T05:51:46.867Z,4.70
2022-08-31T05:56:50.267Z,4.30
2022-08-31T06:01:55.477Z,4.28
2022-08-31T06:06:58.782Z,4.53
2022-08-31T06:12:01.981Z,4.50
2022-08-31T06:17:07.216Z,4.35
2022-08-31T06:22:10.901Z,4.25
2022-08-31T06:27:14.208Z,4.25
2022-08-31T06:32:20.074Z,4.07
2022-08-31T06:37:23.284Z,3.85
2022-08-31T06:42:26.689Z,3.97
2022-08-31T06:47:31.972Z,4.40
2022-08-31T06:52:38.836Z,4.40
2022-08-31T06:57:42.409Z,4.45
2022-08-31T07:02:53.192Z,4.57
2022-08-31T07:08:01.387Z,4.45
2022-08-31T07:13:04.599Z,3.97
2022-08-31T07:18:10.544Z,3.50
2022-08-31T07:23:13.851Z,4.00
2022-08-31T07:28:17.067Z,4.28
2022-08-31T07:33:22.773Z,3.83
2022-08-31T07:38:43.167Z,3.60
2022-08-31T07:43:46.415Z,3.55
2022-08-31T07:48:52.541Z,3.85
2022-08-31T07:53:57.085Z,3.72
2022-08-31T07:59:00.512Z,3.67
2022-08-31T08:04:06.361Z,3.58
2022-08-31T08:09:24.017Z,4.25
2022-08-31T08:14:29.772Z,3.90
2022-08-31T08:19:35.601Z,4.22
2022-08-31T08:24:40.161Z,3.60
2022-08-31T08:29:50.882Z,4.05
2022-08-31T08:34:55.586Z,3.35
2022-08-31T08:39:59.808Z,3.58
2022-08-31T08:45:04.377Z,3.38
2022-08-31T08:50:10.667Z,3.58
2022-08-31T08:55:17.059Z,3.35
2022-08-31T09:00:24.934Z,3.40
2022-08-31T09:05:53.116Z,3.40
2022-08-31T09:11:06.445Z,2.83
2022-08-31T09:16:24.832Z,2.65
2022-08-31T09:21:34.557Z,3.30
2022-08-31T09:26:54.400Z,2.97
2022-08-31T09:32:06.432Z,2.97
2022-08-31T09:37:17.372Z,2.78
2022-08-31T09:42:31.529Z,2.50
2022-08-31T09:47:48.713Z,2.40
2022-08-31T09:53:24.058Z,2.75
2022-08-31T09:58:30.912Z,3.20
2022-08-31T10:03:36.050Z,2.63
2022-08-31T10:08:46.331Z,2.90
2022-08-31T10:13:58.813Z,3.65
2022-08-31T10:19:06.429Z,3.53
2022-08-31T10:24:28.435Z,3.45
2022-08-31T10:29:39.957Z,3.10
2022-08-31T10:34:57.012Z,3.63
2022-08-31T10:40:07.824Z,3.85
2022-08-31T10:45:18.682Z,3.72
2022-08-31T10:50:29.495Z,4.50
2022-08-31T10:55:41.548Z,4.15
2022-08-31T11:00:52.009Z,4.28
2022-08-31T11:06:00.701Z,4.72
2022-08-31T11:11:09.174Z,4.90
2022-08-31T11:16:32.849Z,5.18
2022-08-31T11:22:37.605Z,4.22
2022-08-31T11:27:45.541Z,4.75
2022-08-31T11:32:54.171Z,4.85
2022-08-31T11:38:00.273Z,4.15
2022-08-31T11:43:06.362Z,4.90
2022-08-31T11:48:30.178Z,4.88
2022-08-31T11:53:37.551Z,4.78
2022-08-31T11:58:44.905Z,4.60
2022-08-31T12:03:55.780Z,5.07
2022-08-31T12:09:21.028Z,6.10
2022-08-31T12:14:33.286Z,5.40
2022-08-31T12:20:02.135Z,5.75
2022-08-31T12:25:17.791Z,6.30
2022-08-31T12:35:56.463Z,6.80
2022-08-31T12:40:59.789Z,6.50
2022-08-31T12:46:36.015Z,6.63
2022-08-31T12:51:45.704Z,6.50
2022-08-31T12:56:57.972Z,6.47
2022-08-31T13:02:02.862Z,7.20
2022-08-31T13:07:20.271Z,5.75
2022-08-31T13:12:24.980Z,5.78
2022-08-31T13:17:35.174Z,5.95
2022-08-31T13:22:41.850Z,5.70
2022-08-31T13:27:50.331Z,5.53
2022-08-31T13:32:55.553Z,6.05
2022-08-31T13:38:05.392Z,5.47
2022-08-31T13:43:10.848Z,7.47
2022-08-31T13:48:25.176Z,6.65
2022-08-31T13:53:40.684Z,7.50
2022-08-31T13:58:44.315Z,5.68
2022-08-31T14:03:58.278Z,5.70
2022-08-31T14:09:16.619Z,5.60
2022-08-31T14:14:35.649Z,6.05
2022-08-31T14:19:40.843Z,5.28
2022-08-31T14:24:45.077Z,5.20
2022-08-31T14:29:52.339Z,5.93
2022-08-31T14:34:57.971Z,6.25
2022-08-31T14:40:07.553Z,5.57
2022-08-31T14:45:19.049Z,5.60
2022-08-31T14:50:27.228Z,5.30
2022-08-31T14:55:31.079Z,6.70
2022-08-31T15:00:38.047Z,5.75
2022-08-31T15:05:44.144Z,6.50
2022-08-31T15:10:47.573Z,6.53
2022-08-31T15:15:51.501Z,5.78
2022-08-31T15:20:56.307Z,5.57
2022-08-31T15:26:06.395Z,4.88
2022-08-31T15:31:13.461Z,5.10
2022-08-31T15:36:23.931Z,5.55
2022-08-31T15:41:29.558Z,5.03
2022-08-31T15:46:50.429Z,5.43
2022-08-31T15:51:55.464Z,5.75
2022-08-31T15:56:58.909Z,6.03
2022-08-31T16:02:03.056Z,5.25
2022-08-31T16:07:09.703Z,6.00
2022-08-31T16:12:13.859Z,4.38
2022-08-31T16:17:19.239Z,5.03
2022-08-31T16:22:28.303Z,5.70
2022-08-31T16:27:35.270Z,4.32
2022-08-31T16:32:38.618Z,4.45
2022-08-31T16:37:43.316Z,4.38
2022-08-31T16:42:46.644Z,4.05
2022-08-31T16:48:09.955Z,4.00
2022-08-31T16:53:16.438Z,4.18
2022-08-31T16:58:34.854Z,3.05
2022-08-31T17:03:48.193Z,3.30
2022-08-31T17:08:56.638Z,2.22
2022-08-31T17:14:01.831Z,2.08
2022-08-31T17:19:10.840Z,1.83
2022-08-31T17:24:16.287Z,1.83
2022-08-31T17:29:23.672Z,2.30
2022-08-31T17:34:29.136Z,2.13
2022-08-31T17:39:33.963Z,2.17
2022-08-31T17:44:37.462Z,2.60
2022-08-31T17:49:46.306Z,2.42
2022-08-31T17:54:52.405Z,2.75
2022-08-31T17:59:56.041Z,2.35
2022-08-31T18:04:59.628Z,2.58
2022-08-31T18:10:04.763Z,2.47
2022-08-31T18:15:09.129Z,2.50
2022-08-31T18:20:12.958Z,2.40
2022-08-31T18:25:19.692Z,2.58
2022-08-31T18:30:23.120Z,3.55
2022-08-31T18:35:29.588Z,3.20
2022-08-31T18:40:56.620Z,2.97
2022-08-31T18:46:00.416Z,2.90
2022-08-31T18:51:03.934Z,3.15
2022-08-31T18:56:20.155Z,3.72
2022-08-31T19:01:23.801Z,4.00
2022-08-31T19:06:29.448Z,3.65
2022-08-31T19:12:02.308Z,3.55
2022-08-31T19:17:06.339Z,3.05
2022-08-31T19:22:09.741Z,3.85
2022-08-31T19:27:15.110Z,3.97
2022-08-31T19:32:18.665Z,3.78
2022-08-31T19:37:22.727Z,4.75
2022-08-31T19:47:52.029Z,4.35
2022-08-31T19:52:55.367Z,4.60
2022-08-31T19:58:00.071Z,4.00
2022-08-31T20:03:04.516Z,4.93
2022-08-31T20:08:07.830Z,4.95
2022-08-31T20:13:13.574Z,4.60
2022-08-31T20:18:18.092Z,4.57
2022-08-31T20:23:28.718Z,4.65
2022-08-31T20:28:36.596Z,5.45
2022-08-31T20:33:43.289Z,4.85
2022-08-31T20:38:47.112Z,5.75
2022-08-31T20:43:51.859Z,6.43
2022-08-31T20:49:12.761Z,5.32
2022-08-31T20:54:19.660Z,5.28
2022-08-31T20:59:25.206Z,5.45
2022-08-31T21:04:29.903Z,5.10
2022-08-31T21:09:33.216Z,5.60
2022-08-31T21:14:38.730Z,6.60
2022-08-31T21:19:42.238Z,7.05
2022-08-31T21:24:46.614Z,6.43
2022-08-31T21:29:54.533Z,6.75
2022-08-31T21:34:58.295Z,7.95
2022-08-31T21:40:01.770Z,8.65
2022-08-31T21:45:07.575Z,8.02
2022-08-31T21:50:11.084Z,8.48
2022-08-31T21:55:18.081Z,7.45
2022-08-31T22:00:29.540Z,8.32
2022-08-31T22:05:33.005Z,8.52
2022-08-31T22:10:41.028Z,9.80
2022-08-31T22:15:48.152Z,9.93
2022-08-31T22:20:51.479Z,8.88
2022-08-31T22:25:56.699Z,9.43
2022-08-31T22:31:02.361Z,8.55
2022-08-31T22:36:06.341Z,9.30
2022-08-31T22:41:10.356Z,8.25
2022-08-31T22:46:17.372Z,8.93
2022-08-31T22:51:22.771Z,9.20
2022-08-31T22:56:28.667Z,10.15
2022-08-31T23:01:42.013Z,8.73
2022-08-31T23:06:45.365Z,7.78
2022-08-31T23:11:51.677Z,7.60
2022-08-31T23:16:59.379Z,7.90
2022-08-31T23:22:07.631Z,7.95
2022-08-31T23:27:12.014Z,8.48
2022-08-31T23:32:21.021Z,7.70
2022-08-31T23:37:27.612Z,8.38
2022-08-31T23:42:31.080Z,8.27
2022-08-31T23:47:35.909Z,9.02
2022-08-31T23:52:41.673Z,8.85
2022-08-31T23:57:47.611Z,7.82
